createdAt,value
2023-05-01T00:02:54.745Z,38.40
2023-05-01T00:07:57.765Z,36.00
2023-05-01T00:13:00.542Z,38.00
2023-05-01T00:18:04.804Z,34.60
2023-05-01T00:23:08.591Z,37.80
2023-05-01T00:28:11.462Z,36.20
2023-05-01T00:33:16.199Z,34.80
2023-05-01T00:38:18.972Z,38.75
2023-05-01T00:43:22.169Z,37.40
2023-05-01T00:48:27.306Z,33.60
2023-05-01T00:53:30.137Z,37.20
2023-05-01T00:58:32.905Z,34.80
2023-05-01T01:03:37.230Z,30.00
2023-05-01T01:08:43.052Z,37.80
2023-05-01T01:13:48.153Z,34.40
2023-05-01T01:18:55.447Z,31.00
2023-05-01T01:24:35.506Z,38.00
2023-05-01T01:29:59.776Z,26.80
2023-05-01T01:35:04.803Z,31.80
2023-05-01T01:40:10.103Z,35.00
2023-05-01T01:45:14.728Z,30.60
2023-05-01T01:50:18.824Z,27.20
2023-05-01T01:55:23.703Z,32.80
2023-05-01T02:00:26.462Z,32.00
2023-05-01T02:05:30.612Z,32.20
2023-05-01T02:10:33.923Z,29.40
2023-05-01T02:15:36.696Z,30.00
2023-05-01T02:20:41.028Z,25.00
2023-05-01T02:25:44.208Z,28.20
2023-05-01T02:30:47.220Z,31.60
2023-05-01T02:35:51.435Z,28.40
2023-05-01T02:40:56.905Z,29.20
2023-05-01T02:45:59.797Z,27.20
2023-05-01T02:51:04.521Z,25.00
2023-05-01T02:56:08.719Z,23.00
2023-05-01T03:01:12.220Z,27.00
2023-05-01T03:06:16.425Z,23.80
2023-05-01T03:11:19.194Z,30.00
2023-05-01T03:16:22.000Z,27.20
2023-05-01T03:21:26.658Z,27.00
2023-05-01T03:26:30.039Z,25.00
2023-05-01T03:31:33.048Z,23.40
2023-05-01T03:36:37.392Z,23.00
2023-05-01T03:41:40.646Z,19.80
2023-05-01T03:46:52.145Z,21.60
2023-05-01T03:52:01.234Z,24.20
2023-05-01T03:57:04.144Z,21.40
2023-05-01T04:02:07.103Z,21.00
2023-05-01T04:07:14.120Z,25.20
2023-05-01T04:12:17.212Z,21.40
2023-05-01T04:17:20.010Z,22.80
2023-05-01T04:22:24.517Z,22.20
2023-05-01T04:27:28.154Z,21.80
2023-05-01T04:32:30.974Z,21.80
2023-05-01T04:37:35.685Z,25.20
2023-05-01T04:42:39.451Z,21.60
2023-05-01T04:47:45.208Z,22.40
2023-05-01T04:52:49.476Z,22.40
2023-05-01T04:57:52.634Z,22.60
2023-05-01T05:02:56.262Z,23.20
2023-05-01T05:08:00.987Z,22.60
2023-05-01T05:13:15.638Z,17.60
2023-05-01T05:18:18.435Z,18.60
2023-05-01T05:23:23.014Z,22.60
2023-05-01T05:28:26.213Z,22.40
2023-05-01T05:33:29.170Z,22.00
2023-05-01T05:38:33.667Z,20.00
2023-05-01T05:43:37.243Z,22.60
2023-05-01T05:48:42.490Z,18.00
2023-05-01T05:53:47.295Z,21.40
2023-05-01T05:58:50.035Z,20.00
2023-05-01T06:03:53.152Z,19.40
2023-05-01T06:08:57.755Z,19.00
2023-05-01T06:14:00.966Z,16.40
2023-05-01T06:19:04.115Z,17.80
2023-05-01T06:24:09.101Z,17.80
2023-05-01T06:29:20.970Z,18.20
2023-05-01T06:34:23.779Z,19.40
2023-05-01T06:39:31.716Z,18.60
2023-05-01T06:44:34.664Z,16.00
2023-05-01T06:49:37.974Z,18.00
2023-05-01T06:54:42.351Z,18.40
2023-05-01T06:59:45.186Z,14.20
2023-05-01T07:04:47.970Z,36.50
2023-05-01T07:09:52.185Z,37.50
2023-05-01T07:14:55.058Z,38.50
2023-05-01T07:19:58.005Z,37.00
2023-05-01T07:25:03.450Z,33.25
2023-05-01T07:30:07.704Z,34.50
2023-05-01T07:35:11.223Z,30.00
2023-05-01T07:40:15.547Z,29.60
2023-05-01T07:45:18.568Z,31.00
2023-05-01T07:50:22.619Z,30.00
2023-05-01T07:55:26.851Z,27.40
2023-05-01T08:00:30.077Z,25.80
2023-05-01T08:05:32.892Z,30.00
2023-05-01T08:10:37.111Z,27.40
2023-05-01T08:15:42.732Z,28.25
2023-05-01T08:20:45.519Z,27.60
2023-05-01T08:25:51.570Z,27.00
2023-05-01T08:30:54.360Z,29.80
2023-05-01T08:35:57.137Z,29.60
2023-05-01T08:41:01.677Z,24.20
2023-05-01T08:46:04.957Z,27.40
2023-05-01T08:51:07.806Z,28.00
2023-05-01T08:56:13.654Z,24.80
2023-05-01T09:01:16.689Z,27.00
2023-05-01T09:06:19.558Z,27.60
2023-05-01T09:11:24.183Z,25.60
2023-05-01T09:16:27.084Z,24.40
2023-05-01T09:21:31.955Z,24.60
2023-05-01T09:26:38.417Z,28.60
2023-05-01T09:31:41.276Z,26.20
2023-05-01T09:36:44.107Z,27.00
2023-05-01T09:41:53.469Z,27.40
2023-05-01T09:46:56.470Z,27.80
2023-05-01T09:52:12.004Z,23.60
2023-05-01T09:57:16.210Z,26.40
2023-05-01T10:02:29.105Z,26.40
2023-05-01T10:07:32.076Z,26.60
2023-05-01T10:12:37.364Z,24.00
2023-05-01T10:17:40.579Z,29.80
2023-05-01T10:22:44.369Z,26.80
2023-05-01T10:27:49.150Z,39.75
2023-05-01T10:32:52.821Z,50.75
2023-05-01T10:37:59.662Z,50.00
2023-05-01T10:43:17.151Z,60.33
2023-05-01T10:48:55.097Z,57.67
2023-05-01T10:54:23.261Z,63.00
2023-05-01T10:59:27.407Z,54.33
2023-05-01T11:04:50.690Z,62.00
2023-05-01T11:09:57.489Z,41.50
2023-05-01T11:15:05.771Z,26.20
2023-05-01T11:20:09.103Z,28.00
2023-05-01T11:25:19.153Z,29.00
2023-05-01T11:30:23.365Z,24.40
2023-05-01T11:35:27.233Z,23.00
2023-05-01T11:40:30.832Z,27.80
2023-05-01T11:45:35.447Z,25.60
2023-05-01T11:50:39.413Z,25.40
2023-05-01T11:55:42.265Z,25.20
2023-05-01T12:00:47.016Z,25.60
2023-05-01T12:05:49.951Z,23.80
2023-05-01T12:10:55.898Z,22.00
2023-05-01T12:16:01.277Z,22.00
2023-05-01T12:21:04.178Z,25.40
2023-05-01T12:26:17.520Z,23.60
2023-05-01T12:31:21.806Z,23.80
2023-05-01T12:36:25.768Z,23.60
2023-05-01T12:41:36.694Z,25.00
2023-05-01T12:46:41.265Z,27.40
2023-05-01T12:51:47.760Z,24.40
2023-05-01T12:56:50.752Z,22.00
2023-05-01T13:02:01.622Z,37.25
2023-05-01T13:07:11.535Z,240.00
2023-05-01T13:12:14.354Z,223.00
2023-05-01T13:17:24.191Z,257.50
2023-05-01T13:22:32.278Z,373.75
2023-05-01T13:27:35.008Z,460.25
2023-05-01T13:32:40.389Z,509.50
2023-05-01T13:37:43.181Z,399.75
2023-05-01T13:42:46.167Z,363.75
2023-05-01T13:47:50.518Z,301.00
2023-05-01T13:52:53.463Z,283.50
2023-05-01T13:57:56.565Z,239.33
2023-05-01T14:03:00.907Z,219.00
2023-05-01T14:08:03.824Z,193.00
2023-05-01T14:13:06.805Z,176.75
2023-05-01T14:18:17.744Z,178.75
2023-05-01T14:23:23.024Z,172.25
2023-05-01T14:28:26.006Z,149.00
2023-05-01T14:33:30.217Z,131.25
2023-05-01T14:38:39.338Z,135.75
2023-05-01T14:43:42.388Z,144.00
2023-05-01T14:48:46.550Z,120.25
2023-05-01T14:53:49.304Z,113.25
2023-05-01T14:58:52.126Z,103.25
2023-05-01T15:03:56.483Z,98.00
2023-05-01T15:08:59.353Z,97.00
2023-05-01T15:14:02.511Z,98.75
2023-05-01T15:19:06.658Z,89.00
2023-05-01T15:24:10.305Z,86.25
2023-05-01T15:29:13.224Z,87.00
2023-05-01T15:34:17.462Z,86.25
2023-05-01T15:39:20.300Z,80.00
2023-05-01T15:44:23.054Z,80.50
2023-05-01T15:49:27.698Z,77.75
2023-05-01T15:54:30.635Z,75.25
2023-05-01T15:59:33.514Z,77.00
2023-05-01T16:04:40.473Z,69.33
2023-05-01T16:09:43.425Z,72.67
2023-05-01T16:14:46.213Z,73.33
2023-05-01T16:19:50.446Z,74.67
2023-05-01T16:24:53.424Z,71.67
2023-05-01T16:29:56.457Z,72.67
2023-05-01T16:35:01.538Z,69.33
2023-05-01T16:40:04.908Z,69.00
2023-05-01T16:45:09.511Z,69.00
2023-05-01T16:50:14.053Z,69.33
2023-05-01T16:55:17.551Z,64.00
2023-05-01T17:00:20.679Z,69.67
2023-05-01T17:05:24.900Z,66.00
2023-05-01T17:10:28.129Z,67.33
2023-05-01T17:15:30.884Z,63.67
2023-05-01T17:20:35.068Z,61.33
2023-05-01T17:25:37.871Z,64.67
2023-05-01T17:30:53.694Z,67.00
2023-05-01T17:36:04.948Z,65.67
2023-05-01T17:41:07.842Z,55.50
2023-05-01T17:46:10.818Z,61.00
2023-05-01T17:51:15.343Z,57.50
2023-05-01T17:56:18.675Z,54.00
2023-05-01T18:01:21.643Z,59.00
2023-05-01T18:06:25.972Z,54.25
2023-05-01T18:11:28.950Z,50.50
2023-05-01T18:16:32.471Z,58.00
2023-05-01T18:21:36.725Z,46.75
2023-05-01T18:26:39.514Z,53.00
2023-05-01T18:31:42.481Z,50.25
2023-05-01T18:36:52.026Z,48.50
2023-05-01T18:41:55.330Z,51.25
2023-05-01T18:46:58.286Z,46.25
2023-05-01T18:52:03.263Z,40.50
2023-05-01T18:57:06.604Z,44.75
2023-05-01T19:02:09.493Z,45.00
2023-05-01T19:07:13.774Z,47.50
2023-05-01T19:12:17.045Z,45.75
2023-05-01T19:17:19.825Z,46.00
2023-05-01T19:22:24.040Z,47.25
2023-05-01T19:27:27.138Z,43.75
2023-05-01T19:32:30.151Z,48.50
2023-05-01T19:37:34.425Z,44.25
2023-05-01T19:42:37.455Z,42.00
2023-05-01T19:47:40.297Z,42.25
2023-05-01T19:52:44.488Z,46.75
2023-05-01T19:57:47.442Z,43.00
2023-05-01T20:02:50.403Z,36.50
2023-05-01T20:07:55.162Z,43.25
2023-05-01T20:12:58.225Z,40.00
2023-05-01T20:18:01.293Z,40.50
2023-05-01T20:23:12.176Z,39.00
2023-05-01T20:28:15.615Z,38.25
2023-05-01T20:33:18.635Z,38.75
2023-05-01T20:38:23.281Z,37.00
2023-05-01T20:43:26.951Z,39.00
2023-05-01T20:48:29.802Z,42.25
2023-05-01T20:53:34.003Z,39.60
2023-05-01T20:58:36.935Z,34.00
2023-05-01T21:03:40.292Z,39.25
2023-05-01T21:08:44.776Z,31.80
2023-05-01T21:13:47.701Z,35.00
2023-05-01T21:18:50.547Z,31.80
2023-05-01T21:23:54.770Z,32.00
2023-05-01T21:28:58.686Z,34.20
2023-05-01T21:34:02.336Z,37.40
2023-05-01T21:39:06.734Z,33.20
2023-05-01T21:44:09.657Z,35.20
2023-05-01T21:49:12.680Z,30.40
2023-05-01T21:54:17.638Z,36.00
2023-05-01T21:59:21.328Z,32.20
2023-05-01T22:04:24.791Z,35.60
2023-05-01T22:09:28.886Z,35.60
2023-05-01T22:14:46.274Z,33.20
2023-05-01T22:19:50.121Z,29.40
2023-05-01T22:24:54.292Z,34.40
2023-05-01T22:29:57.506Z,31.00
2023-05-01T22:35:00.758Z,34.00
2023-05-01T22:40:05.804Z,34.60
2023-05-01T22:45:10.145Z,33.40
2023-05-01T22:50:13.013Z,33.60
2023-05-01T22:55:17.661Z,26.20
2023-05-01T23:00:22.112Z,32.80
2023-05-01T23:05:25.074Z,28.60
2023-05-01T23:10:30.361Z,34.80
2023-05-01T23:15:33.941Z,25.40
2023-05-01T23:20:39.927Z,26.40
2023-05-01T23:25:48.836Z,29.40
2023-05-01T23:30:55.006Z,30.80
2023-05-01T23:35:58.438Z,25.00
2023-05-01T23:41:02.632Z,28.60
2023-05-01T23:46:06.508Z,26.00
2023-05-01T23:51:09.271Z,29.40
2023-05-01T23:56:13.990Z,24.20
